Kake Airport Kake US
ICAO: PAFE
IATA:
Category: Medium
Scheduled Services:

Elevation: 172 ft
TransAlt. 18000 ft.

Airport Communications:
AWOS 3:135.25
ANCHORAGE CNTR:118
CTAF:122.9
SITKA RDO:121.3

PAFE Zoom In..

If you have problems with the map follow the link
https://www.worldairports.se/pages/airport.php?
ICAO=PAFE

Runways:

(A) RW 11 length 4000 ft width 100 ft
---- / hdg 109

(B) RW 29 length 4000 ft width 100 ft
---- / hdg 289

Location; PAFE
Day. 16 / Time. 02.56 Zulu
* Altimeter: 30.28
* Temperature: 04° c. 39.2°f.
* Wind from: 080° Speed 04 kn.
Dewpoint: 03° c.
Visibility: 10 Statute Miles.
Clouds: Scattered 1400 ft.
Clouds: Broken 2700 ft.
Clouds: Overcast 3300 ft.

PAFE 160256Z AUTO 08004KT 10SM SCT014 BKN027 OVC033 04/03 A3028 RMK AO2 SLP268 T00390033 53022


Wind From 080°
Speed 04 kn.

 
 
jpsmedia.com for Web Design worldairports.se 2018   terms of use